This is the latest recevied weather packets stored in our database for station/object AE7VB. If no packets are shown the sender has not sent any weather packets the latest 10 day(s).
| Time | Temp. | Humidity | Pressure | Rain* | Wind** | Luminosity | Snow |
|---|---|---|---|---|---|---|---|
| 1777702034 | 11.67° C | 57% | 1022.4 hPa | 0 mm | - | - | - |
| 1777701403 | 11.67° C | 57% | 1022.2 hPa | 0 mm | - | - | - |
| 1777695868 | 12.78° C | 56% | 1021.6 hPa | 0 mm | - | - | - |
| 1777689857 | 16.67° C | 49% | 1021 hPa | 0 mm | - | - | - |
| 1777688654 | 17.78° C | 45% | 1020.9 hPa | 0 mm | - | - | - |
| 1777681948 | 22.78° C | 27% | 1021.1 hPa | 0 mm | - | - | - |
| 1777681348 | 22.78° C | 30% | 1021.3 hPa | 0 mm | - | - | - |
| 1777680145 | 22.22° C | 28% | 1021.6 hPa | 0 mm | - | - | - |
| 1777677077 | 22.22° C | 28% | 1022.1 hPa | 0 mm | - | - | - |
| 1777675875 | 22.22° C | 28% | 1022.2 hPa | 0 mm | - | - | - |
| 1777675274 | 22.78° C | 26% | 1022.5 hPa | 0 mm | - | - | - |
| 1777673471 | 22.22° C | 28% | 1022.8 hPa | 0 mm | - | - | - |
| 1777672870 | 22.22° C | 27% | 1022.8 hPa | 0 mm | - | - | - |
| 1777663725 | 21.67° C | 29% | 1024.6 hPa | 0 mm | - | - | - |
| 1777658853 | 18.89° C | 48% | 1025.3 hPa | 0 mm | - | - | - |
| 1777657620 | 17.78° C | 47% | 1025.1 hPa | 0 mm | - | - | - |
| 1777655817 | 16.11° C | 47% | 1025.1 hPa | 0 mm | - | - | - |
| 1777649774 | 12.22° C | 51% | 1024.8 hPa | 0 mm | - | - | - |
| 1777646725 | 10.56° C | 57% | 1025.3 hPa | 0 mm | - | - | - |
| 1777645460 | 9.44° C | 60% | 1025.6 hPa | 0 mm | - | - | - |
| 1777634479 | 5.56° C | 67% | 1024.3 hPa | 0 mm | - | - | - |
| 1777633878 | 5.56° C | 67% | 1024.2 hPa | 0 mm | - | - | - |
| 1777633278 | 5.56° C | 68% | 1024.2 hPa | 0 mm | - | - | - |
| 1777632677 | 5.56° C | 68% | 1024 hPa | 0 mm | - | - | - |
| 1777631464 | 5.56° C | 69% | 1024.4 hPa | 0 mm | - | - | - |
* Rain latest hour (hover to see other rain measurements)
** Current wind speed in m/s (hover to see current wind gust speed)